Time;durP1;ratioP1;P1;durP2;ratioP2;P2;SDS_P1;SDS_P2;PMS_P1;PMS_P2;Temp;Humidity;BMP_temperature;BMP_pressure;BME280_temperature;BME280_humidity;BME280_pressure;Samples;Min_cycle;Max_cycle;Signal;HPM_P1;HPM_P2
2023/08/04 07:23:30;;;;;;;10.02;6.38;;;;;;;-145.79;92.84;77089.00;5315720;27;20405;-83
2023/08/04 07:26:03;;;;;;;12.32;6.55;;;;;;;-145.79;92.52;77080.53;5301537;28;20024;-83
2023/08/04 07:28:35;;;;;;;8.00;5.78;;;;;;;-145.79;92.47;77069.94;5297445;28;20024;-82
2023/08/04 07:31:08;;;;;;;8.85;6.47;;;;;;;-145.79;92.37;77069.94;5289663;28;20017;-82
2023/08/04 07:33:40;;;;;;;8.77;5.43;;;;;;;-145.79;92.12;77052.97;5299814;28;20025;-80
2023/08/04 07:36:11;;;;;;;5.63;4.97;;;;;;;-145.79;90.95;77052.97;5291714;28;20066;-80
2023/08/04 07:38:42;;;;;;;5.68;4.60;;;;;;;-145.79;90.83;77052.97;5294801;28;20037;-81
2023/08/04 07:41:22;;;;;;;6.40;4.00;;;;;;;-145.79;89.22;77048.75;5290086;28;20054;-78
2023/08/04 07:43:53;;;;;;;7.15;4.57;;;;;;;-145.79;90.17;77046.63;5300607;28;20030;-83
2023/08/04 07:46:28;;;;;;;7.10;5.10;;;;;;;-145.79;90.66;77042.38;5292585;28;20024;-82
2023/08/04 07:48:59;;;;;;;8.03;3.87;;;;;;;-145.79;86.65;77059.34;5296367;28;20021;-82
2023/08/04 07:51:31;;;;;;;7.75;4.47;;;;;;;-145.79;88.97;77055.09;5294773;28;20340;-83
2023/08/04 07:54:02;;;;;;;10.75;9.70;;;;;;;-145.79;89.07;77057.22;5289451;28;20024;-83
2023/08/04 07:56:34;;;;;;;14.15;12.75;;;;;;;-145.79;89.95;77050.88;5291551;28;20506;-83
2023/08/04 07:59:05;;;;;;;6.78;4.78;;;;;;;-145.79;88.69;77063.59;5299557;28;20111;-82
2023/08/04 08:01:36;;;;;;;6.88;4.70;;;;;;;-145.79;89.10;77069.94;5291671;28;20029;-82
2023/08/04 08:04:08;;;;;;;6.18;4.05;;;;;;;-145.79;90.32;77063.59;5287801;28;20032;-82
2023/08/04 08:06:39;;;;;;;5.72;4.10;;;;;;;-145.79;88.40;77080.53;5297170;28;20040;-81
2023/08/04 08:09:12;;;;;;;5.82;3.10;;;;;;;-145.79;89.30;77067.81;5292460;28;20042;-81
2023/08/04 08:11:43;;;;;;;5.03;3.70;;;;;;;-145.79;89.27;77065.69;5291267;28;20031;-81
2023/08/04 08:14:16;;;;;;;6.75;3.30;;;;;;;-145.79;89.02;77076.31;5293649;28;20024;-81
2023/08/04 08:16:47;;;;;;;7.07;3.67;;;;;;;-145.79;89.03;77059.34;5301860;28;20028;-79
2023/08/04 08:19:19;;;;;;;5.25;3.58;;;;;;;-145.79;87.94;77061.47;5306411;28;20487;-78
2023/08/04 08:21:50;;;;;;;3.50;3.20;;;;;;;-145.79;87.89;77046.63;5299684;28;20523;-82
2023/08/04 08:24:21;;;;;;;5.05;3.42;;;;;;;-145.79;86.86;77055.09;5308899;28;20016;-81
2023/08/04 08:26:53;;;;;;;5.18;2.97;;;;;;;-145.79;85.35;77044.50;5316943;28;20153;-82
2023/08/04 08:29:24;;;;;;;3.92;2.22;;;;;;;-145.79;83.73;77042.38;5310026;28;20111;-81
2023/08/04 08:31:57;;;;;;;5.43;2.58;;;;;;;-145.79;82.06;77025.44;5316536;28;20165;-81
2023/08/04 08:34:28;;;;;;;3.67;2.88;;;;;;;-145.79;80.96;77014.84;5309555;28;20036;-77
2023/08/04 08:37:00;;;;;;;2.90;2.40;;;;;;;-145.79;80.59;77025.44;5299652;28;20027;-85
2023/08/04 08:39:32;;;;;;;12.57;11.45;;;;;;;-145.79;81.15;77012.72;5299011;28;20031;-84
2023/08/04 08:42:04;;;;;;;29.15;26.63;;;;;;;-145.79;80.66;77004.25;5308412;28;20467;-85
2023/08/04 08:44:35;;;;;;;6.38;3.20;;;;;;;-145.79;80.78;77021.19;5299246;28;20028;-81
2023/08/04 08:47:07;;;;;;;5.03;3.97;;;;;;;-145.79;82.13;77012.72;5298898;28;20028;-83
2023/08/04 08:49:45;;;;;;;5.35;2.95;;;;;;;-145.79;82.60;77012.72;5298242;28;20030;-83
2023/08/04 08:52:19;;;;;;;4.50;2.90;;;;;;;-145.79;83.75;77023.31;5305858;28;20024;-82
2023/08/04 08:54:51;;;;;;;6.80;2.55;;;;;;;-145.79;84.13;77021.19;5304484;28;20021;-84
2023/08/04 08:57:22;;;;;;;6.60;4.90;;;;;;;-145.79;84.85;77014.84;5300072;28;20028;-83
2023/08/04 08:59:57;;;;;;;6.88;4.68;;;;;;;-145.79;83.60;77023.31;5295714;28;20021;-82
2023/08/04 09:02:29;;;;;;;5.55;3.30;;;;;;;-145.79;83.99;77016.94;5294459;28;20048;-80
2023/08/04 09:05:02;;;;;;;6.80;3.58;;;;;;;-145.79;83.60;77002.13;5306594;28;20058;-81
2023/08/04 09:07:34;;;;;;;4.72;3.08;;;;;;;-145.79;82.58;76989.41;5302156;28;20024;-81
2023/08/04 09:10:07;;;;;;;5.70;2.50;;;;;;;-145.79;80.58;76989.41;5294458;28;20545;-78
2023/08/04 09:12:39;;;;;;;5.60;3.90;;;;;;;-145.79;80.26;76976.69;5293523;28;20024;-74
2023/08/04 09:15:10;;;;;;;5.88;2.72;;;;;;;-145.79;79.34;76968.22;5298550;28;20077;-75
2023/08/04 09:17:42;;;;;;;3.35;2.17;;;;;;;-145.79;79.58;76961.84;5303404;28;20031;-76
2023/08/04 09:20:28;;;;;;;6.00;2.72;;;;;;;-145.79;81.47;76974.56;5294326;28;20032;-81
2023/08/04 09:23:00;;;;;;;7.50;5.13;;;;;;;-145.79;87.39;77002.13;5300213;28;20081;-80
2023/08/04 09:25:48;;;;;;;8.65;5.32;;;;;;;-145.79;90.84;77019.06;5307205;28;20487;-86
2023/08/04 09:28:19;;;;;;;3.55;3.00;;;;;;;-145.79;90.72;77033.91;5306835;28;20035;-74
2023/08/04 09:31:02;;;;;;;3.28;2.97;;;;;;;-145.79;91.35;77044.50;5300730;28;20428;-79
2023/08/04 09:33:40;;;;;;;3.83;2.88;;;;;;;-145.79;92.66;77033.91;5297176;28;20147;-80
2023/08/04 09:36:18;;;;;;;4.35;2.90;;;;;;;-145.79;92.96;77033.91;5300192;28;20103;-79
2023/08/04 09:38:49;;;;;;;5.60;2.80;;;;;;;-145.79;93.64;77031.78;5300186;28;20030;-79
2023/08/04 09:41:21;;;;;;;4.05;2.53;;;;;;;-145.79;92.27;77021.19;5303928;28;20387;-79
2023/08/04 09:43:52;;;;;;;3.75;2.97;;;;;;;-145.79;93.05;77004.25;5300092;28;20407;-80
2023/08/04 09:46:23;;;;;;;3.00;2.63;;;;;;;-145.79;92.35;77000.00;5302159;28;20031;-80
2023/08/04 09:48:59;;;;;;;4.13;3.00;;;;;;;-145.79;91.36;76987.28;5306014;28;20032;-81
2023/08/04 09:51:38;;;;;;;3.60;2.88;;;;;;;-145.79;90.47;76976.69;5305483;28;20107;-79
2023/08/04 09:54:10;;;;;;;4.53;2.65;;;;;;;-145.79;90.11;76955.50;5306794;28;20025;-79
2023/08/04 09:56:43;;;;;;;4.15;3.17;;;;;;;-145.79;87.54;76959.72;5309877;28;20043;-79
2023/08/04 09:59:17;;;;;;;3.78;2.83;;;;;;;-145.79;88.34;76940.66;5312760;28;20024;-80
2023/08/04 10:01:49;;;;;;;5.82;3.25;;;;;;;-145.79;86.16;76934.28;5312427;28;20028;-80
2023/08/04 10:04:21;;;;;;;4.28;3.08;;;;;;;-145.79;86.99;76927.94;5300083;28;20029;-79
2023/08/04 10:06:54;;;;;;;4.25;2.63;;;;;;;-145.79;86.14;76940.66;5302576;28;20028;-79
2023/08/04 10:09:27;;;;;;;3.00;2.55;;;;;;;-145.79;86.51;76936.41;5300695;28;20036;-79
2023/08/04 10:11:59;;;;;;;5.07;2.40;;;;;;;-145.79;85.69;76940.66;5303198;28;20020;-80
2023/08/04 10:14:30;;;;;;;4.65;2.72;;;;;;;-145.79;88.36;76949.13;5292931;28;20027;-80
2023/08/04 10:17:02;;;;;;;6.28;2.85;;;;;;;-145.79;89.72;76989.41;5306072;28;20122;-83
2023/08/04 10:19:34;;;;;;;3.50;2.05;;;;;;;-145.79;90.23;77008.47;5300416;28;20028;-82
2023/08/04 10:22:08;;;;;;;3.22;2.08;;;;;;;-145.79;93.22;76995.75;5296685;28;20499;-81
2023/08/04 10:24:41;;;;;;;3.60;2.23;;;;;;;-145.79;92.68;77006.34;5295805;28;20360;-80
2023/08/04 10:27:21;;;;;;;2.72;2.45;;;;;;;-145.79;92.59;76989.41;5303477;28;20092;-84
2023/08/04 10:30:08;;;;;;;3.67;2.03;;;;;;;-145.79;90.84;76989.41;5303603;28;20028;-83
2023/08/04 10:32:40;;;;;;;17.77;15.63;;;;;;;-145.79;90.82;76980.94;5302532;28;20032;-85
2023/08/04 10:35:18;;;;;;;27.75;25.08;;;;;;;-145.79;91.03;76961.84;5299968;28;20024;-85
2023/08/04 10:37:53;;;;;;;6.85;3.55;;;;;;;-145.79;89.52;76972.44;5299014;28;20107;-85
2023/08/04 10:40:30;;;;;;;3.85;2.38;;;;;;;-145.79;87.68;76961.84;5295662;28;20039;-84
2023/08/04 10:43:08;;;;;;;5.35;2.50;;;;;;;-145.79;88.95;76949.13;5293062;28;20067;-86
2023/08/04 10:46:03;;;;;;;3.85;2.45;;;;;;;-145.79;89.97;76940.66;5296306;28;20075;-86
2023/08/04 10:48:36;;;;;;;4.93;2.45;;;;;;;-145.79;91.91;76921.59;5297156;28;20031;-84
2023/08/04 10:51:08;;;;;;;4.65;2.85;;;;;;;-145.79;87.16;76927.94;5306013;28;20460;-85
2023/08/04 10:53:39;;;;;;;3.45;2.47;;;;;;;-145.79;84.50;76927.94;5305638;28;20031;-84
2023/08/04 10:56:11;;;;;;;4.63;2.25;;;;;;;-145.79;82.93;76921.59;5312277;28;20023;-85
2023/08/04 10:58:42;;;;;;;3.20;1.90;;;;;;;-145.79;79.26;76938.53;5313097;28;20036;-83
2023/08/04 11:01:15;;;;;;;5.05;2.08;;;;;;;-145.79;81.72;76940.66;5307146;28;20474;-84
2023/08/04 11:03:47;;;;;;;3.20;2.10;;;;;;;-145.79;81.11;76949.13;5295141;28;20029;-84
2023/08/04 11:06:19;;;;;;;3.53;1.95;;;;;;;-145.79;79.90;76947.00;5303973;28;20479;-84
2023/08/04 11:08:51;;;;;;;3.08;1.88;;;;;;;-145.79;80.35;76927.94;5300396;28;20051;-78
2023/08/04 11:11:23;;;;;;;3.92;2.17;;;;;;;-145.79;77.58;76921.59;5296641;28;20025;-77
2023/08/04 11:13:57;;;;;;;4.75;2.05;;;;;;;-145.79;79.26;76902.50;5300550;28;20383;-81
2023/08/04 11:16:32;;;;;;;4.37;2.23;;;;;;;-145.79;80.07;76906.75;5297340;28;20077;-82
2023/08/04 11:19:06;;;;;;;8.55;2.22;;;;;;;-145.79;77.26;76940.66;5294336;28;20281;-82
2023/08/04 11:21:38;;;;;;;2.75;1.50;;;;;;;-145.79;79.86;76944.91;5294633;28;20520;-82
2023/08/04 11:24:09;;;;;;;2.17;1.50;;;;;;;-145.79;80.67;76966.09;5301677;28;20055;-81
2023/08/04 11:26:41;;;;;;;11.00;5.15;;;;;;;-145.79;78.88;76963.97;5289660;28;20035;-81
2023/08/04 11:29:12;;;;;;;5.95;3.95;;;;;;;-145.79;78.39;76997.88;5300525;28;20386;-82
2023/08/04 11:31:46;;;;;;;3.22;2.20;;;;;;;-145.79;80.22;77000.00;5303321;28;20016;-82
2023/08/04 11:34:17;;;;;;;4.35;1.85;;;;;;;-145.79;82.41;76991.53;5294347;28;20100;-81
2023/08/04 11:36:49;;;;;;;5.38;1.80;;;;;;;-145.79;82.44;76978.81;5295204;28;20104;-82
2023/08/04 11:39:21;;;;;;;3.00;2.00;;;;;;;-145.79;82.27;76972.44;5295682;28;20029;-81
2023/08/04 11:41:52;;;;;;;5.88;2.20;;;;;;;-145.79;80.34;76957.59;5297255;28;20036;-82
2023/08/04 11:44:23;;;;;;;3.50;2.00;;;;;;;-145.79;79.76;76961.84;5293172;28;20032;-81
2023/08/04 11:46:55;;;;;;;3.60;2.30;;;;;;;-145.79;78.46;76955.50;5303966;28;20039;-81
2023/08/04 11:49:28;;;;;;;4.15;1.77;;;;;;;-145.79;78.46;76936.41;5293613;28;20031;-81
2023/08/04 11:52:00;;;;;;;4.07;1.80;;;;;;;-145.79;78.52;76913.09;5291321;28;20054;-81
2023/08/04 11:54:31;;;;;;;4.15;2.15;;;;;;;-145.79;76.58;76894.03;5292325;28;20107;-80
2023/08/04 11:57:03;;;;;;;2.60;1.30;;;;;;;-145.79;74.98;76879.19;5294378;28;20437;-78
2023/08/04 11:59:46;;;;;;;5.60;3.10;;;;;;;-145.79;76.29;76868.59;5294013;28;20077;-81
2023/08/04 12:02:17;;;;;;;3.58;1.73;;;;;;;-145.79;73.88;76874.94;5296192;28;20044;-81
2023/08/04 12:05:10;;;;;;;2.25;1.63;;;;;;;-145.79;73.85;76872.84;5292401;28;20506;-83
2023/08/04 12:07:42;;;;;;;1.98;1.20;;;;;;;-145.79;70.98;76883.44;5294856;28;20029;-87
2023/08/04 12:10:14;;;;;;;12.48;9.90;;;;;;;-145.79;71.49;76891.91;5293877;28;20040;-82
2023/08/04 12:12:45;;;;;;;4.03;2.33;;;;;;;-145.79;69.63;76894.03;5297020;28;20027;-84
2023/08/04 12:15:16;;;;;;;4.47;2.28;;;;;;;-145.79;70.43;76881.31;5289625;28;20028;-81
2023/08/04 12:30:29;;;;;;;6.40;2.65;;;;;;;-145.79;67.46;76754.16;5343380;27;20409;-79
2023/08/04 12:33:01;;;;;;;6.15;1.63;;;;;;;-145.79;66.63;76737.19;5334761;27;20023;-81
2023/08/04 12:35:32;;;;;;;1.67;1.27;;;;;;;-145.79;65.42;76728.72;5330053;28;20020;-79
2023/08/04 12:38:04;;;;;;;2.95;1.70;;;;;;;-145.79;66.18;76716.00;5331140;28;20035;-80
2023/08/04 12:40:35;;;;;;;4.28;1.50;;;;;;;-145.79;65.20;76728.72;5333292;28;20101;-78
2023/08/04 12:43:07;;;;;;;5.03;3.78;;;;;;;-145.79;67.63;76732.97;5335126;27;20463;-78
2023/08/04 12:45:39;;;;;;;3.88;1.83;;;;;;;-145.79;69.71;76788.06;5334642;28;20501;-77
2023/08/04 12:48:10;;;;;;;2.45;2.05;;;;;;;-145.79;72.94;76821.97;5333626;27;20035;-80
2023/08/04 12:50:44;;;;;;;4.00;2.75;;;;;;;-145.79;79.84;76868.59;5332288;27;20031;-82
2023/08/04 12:53:16;;;;;;;2.08;1.50;;;;;;;-145.79;82.52;76883.44;5332707;28;20062;-78
2023/08/04 12:55:48;;;;;;;1.92;1.10;;;;;;;-145.79;79.35;76894.03;5335050;28;20049;-78
2023/08/04 12:58:19;;;;;;;2.17;1.40;;;;;;;-145.79;80.96;76917.34;5333181;28;20500;-79
2023/08/04 13:00:50;;;;;;;3.20;1.95;;;;;;;-145.79;82.55;76900.38;5334631;27;20035;-82
2023/08/04 13:03:22;;;;;;;5.65;2.30;;;;;;;-145.79;82.83;76910.97;5334432;27;20053;-82
2023/08/04 13:05:53;;;;;;;3.08;2.05;;;;;;;-145.79;83.68;76900.38;5332149;27;20020;-81
2023/08/04 13:08:24;;;;;;;4.85;2.25;;;;;;;-145.79;85.01;76891.91;5329884;28;20031;-81
2023/08/04 13:10:59;;;;;;;2.58;1.75;;;;;;;-145.79;83.41;76904.63;5336534;28;20052;-81
2023/08/04 13:13:30;;;;;;;3.20;2.20;;;;;;;-145.79;83.54;76883.44;5334504;27;20019;-81
2023/08/04 13:16:01;;;;;;;4.60;2.10;;;;;;;-145.79;86.43;76877.06;5330608;27;20096;-81
2023/08/04 13:18:33;;;;;;;2.05;1.63;;;;;;;-145.79;81.37;76904.63;5330096;28;20046;-80
2023/08/04 13:21:04;;;;;;;3.80;2.90;;;;;;;-145.79;85.43;76891.91;5333008;28;20020;-80
2023/08/04 13:23:36;;;;;;;4.50;2.17;;;;;;;-145.79;85.09;76881.31;5331153;27;20047;-78
2023/08/04 13:26:08;;;;;;;3.80;1.80;;;;;;;-145.79;79.37;76870.72;5330003;28;20077;-77
2023/08/04 13:28:39;;;;;;;3.17;2.10;;;;;;;-145.79;79.77;76836.81;5310737;28;20045;-79
2023/08/04 13:31:12;;;;;;;4.70;2.00;;;;;;;-145.79;74.16;76834.69;5231531;28;20057;-79
2023/08/04 13:33:43;;;;;;;3.28;1.63;;;;;;;-145.79;76.34;76843.16;5229019;28;20019;-79
2023/08/04 13:36:14;;;;;;;4.63;1.92;;;;;;;-145.79;78.43;76834.69;5230133;28;20050;-78
2023/08/04 13:38:48;;;;;;;4.25;2.13;;;;;;;-145.79;77.72;76838.94;5232290;28;20072;-79
2023/08/04 13:41:19;;;;;;;4.50;1.85;;;;;;;-145.79;77.99;76838.94;5243293;27;20428;-79
2023/08/04 13:43:51;;;;;;;3.33;2.28;;;;;;;-145.79;78.67;76832.56;5229609;28;20060;-78
2023/08/04 13:46:22;;;;;;;4.72;2.25;;;;;;;-145.79;77.60;76813.50;5238885;28;20476;-79
2023/08/04 13:48:53;;;;;;;5.25;1.77;;;;;;;-145.79;77.35;76809.25;5232726;28;20017;-79
2023/08/04 13:51:25;;;;;;;3.08;2.08;;;;;;;-145.79;75.90;76824.09;5234678;28;20041;-79
2023/08/04 13:53:56;;;;;;;4.10;2.00;;;;;;;-145.79;73.39;76830.44;5229478;28;20337;-79
2023/08/04 13:56:27;;;;;;;3.65;1.60;;;;;;;-145.79;74.21;76819.84;5230007;28;20026;-78
2023/08/04 13:58:59;;;;;;;4.13;1.50;;;;;;;-145.79;73.86;76792.31;5236992;28;20088;-78
2023/08/04 14:01:31;;;;;;;2.67;1.70;;;;;;;-145.79;75.18;76773.22;5260910;27;20106;-79
2023/08/04 14:04:04;;;;;;;2.28;1.50;;;;;;;-145.79;74.05;76743.56;5240544;28;20196;-78
2023/08/04 14:06:35;;;;;;;3.03;1.45;;;;;;;-145.79;72.38;76760.50;5231538;28;20033;-79
2023/08/04 14:09:06;;;;;;;2.97;2.33;;;;;;;-145.79;73.06;76741.44;5229043;28;20434;-78
2023/08/04 14:14:19;;;;;;;4.32;3.92;;;;;;;-145.79;67.74;76699.06;5346237;22;20464;-80
2023/08/04 14:16:51;;;;;;;3.65;2.47;;;;;;;-145.79;64.75;76722.34;5306298;28;20028;-78
2023/08/04 14:19:22;;;;;;;3.72;2.72;;;;;;;-145.79;65.99;76726.59;5298530;28;20028;-79
2023/08/04 14:21:54;;;;;;;2.47;1.38;;;;;;;-145.79;67.32;76743.56;5306385;28;20095;-79
2023/08/04 14:24:26;;;;;;;2.20;1.35;;;;;;;-145.79;66.32;76758.38;5306072;28;20099;-79
2023/08/04 14:26:57;;;;;;;4.72;1.98;;;;;;;-145.79;66.30;76739.31;5305393;28;20059;-79
2023/08/04 14:29:28;;;;;;;1.83;1.20;;;;;;;-145.79;67.38;76749.91;5305946;28;20047;-79
2023/08/04 14:32:00;;;;;;;8.80;7.88;;;;;;;-145.79;65.63;76762.63;5305824;28;20137;-80
2023/08/04 14:34:31;;;;;;;12.75;11.23;;;;;;;-145.79;66.90;76785.94;5304956;28;20084;-80
2023/08/04 14:37:03;;;;;;;2.65;1.70;;;;;;;-145.79;66.72;76805.00;5304225;28;20039;-81
2023/08/04 14:39:34;;;;;;;2.40;1.27;;;;;;;-145.79;67.00;76788.06;5304541;28;20084;-80
2023/08/04 14:42:06;;;;;;;2.10;1.40;;;;;;;-145.79;65.12;76775.34;5291784;28;20033;-80
2023/08/04 14:44:37;;;;;;;1.73;1.25;;;;;;;-145.79;64.22;76754.16;5297802;28;20032;-80
2023/08/04 14:47:09;;;;;;;2.15;1.40;;;;;;;-145.79;63.35;76785.94;5304720;28;20039;-80
2023/08/04 14:49:40;;;;;;;1.45;1.17;;;;;;;-145.79;64.33;76790.19;5306162;28;20073;-81
2023/08/04 14:52:11;;;;;;;2.45;1.67;;;;;;;-145.79;64.65;76802.91;5303199;28;20028;-79
2023/08/04 14:54:43;;;;;;;3.60;1.55;;;;;;;-145.79;64.20;76819.84;5300038;28;20022;-80
2023/08/04 14:57:14;;;;;;;3.10;1.83;;;;;;;-145.79;64.22;76807.13;5305271;28;20056;-80
2023/08/04 14:59:45;;;;;;;9.82;9.02;;;;;;;-145.79;64.79;76777.47;5304985;28;20036;-80
2023/08/04 15:02:17;;;;;;;17.67;12.40;;;;;;;-145.79;61.00;76754.16;5304806;28;20024;-81
2023/08/04 15:04:52;;;;;;;3.42;1.90;;;;;;;-145.79;61.01;76732.97;5305255;28;20488;-79
2023/08/04 15:07:23;;;;;;;1.52;1.08;;;;;;;-145.79;61.14;76720.25;5305622;28;20024;-79
2023/08/04 15:09:55;;;;;;;32.53;29.65;;;;;;;-145.79;60.30;76703.28;5295463;28;20032;-78
2023/08/04 15:12:26;;;;;;;4.22;3.50;;;;;;;-145.79;59.77;76741.44;5301548;28;20077;-81
2023/08/04 15:14:58;;;;;;;2.92;1.25;;;;;;;-145.79;60.26;76758.38;5304757;28;20036;-81
2023/08/04 15:17:30;;;;;;;2.10;1.30;;;;;;;-145.79;61.10;76762.63;5305303;28;20024;-80
2023/08/04 15:20:03;;;;;;;1.42;1.10;;;;;;;-145.79;60.84;76749.91;5305024;28;20035;-81
2023/08/04 15:22:34;;;;;;;1.90;1.30;;;;;;;-145.79;59.72;76747.78;5303778;28;20479;-79
2023/08/04 15:25:06;;;;;;;1.35;1.20;;;;;;;-145.79;60.61;76737.19;5304444;28;20039;-82
2023/08/04 15:27:40;;;;;;;2.47;1.67;;;;;;;-145.79;61.30;76732.97;5304233;28;20131;-82
2023/08/04 15:30:12;;;;;;;3.38;1.35;;;;;;;-145.79;61.00;76720.25;5299121;28;20138;-81
2023/08/04 15:32:43;;;;;;;2.70;1.25;;;;;;;-145.79;60.10;76711.75;5302499;28;20433;-82
2023/08/04 15:35:15;;;;;;;3.30;1.23;;;;;;;-145.79;60.32;76707.53;5303550;28;20063;-83
2023/08/04 15:37:46;;;;;;;1.60;1.30;;;;;;;-145.79;59.37;76707.53;5296465;28;20078;-83
2023/08/04 15:40:18;;;;;;;2.08;1.23;;;;;;;-145.79;60.53;76684.22;5300314;28;20024;-81
2023/08/04 15:42:49;;;;;;;1.83;1.50;;;;;;;-145.79;59.96;76701.16;5303536;28;20089;-82
2023/08/04 15:45:21;;;;;;;2.85;2.15;;;;;;;-145.79;58.86;76718.13;5302580;28;20024;-82
2023/08/04 15:47:52;;;;;;;1.58;1.10;;;;;;;-145.79;59.87;76696.94;5304547;28;20039;-80
2023/08/04 15:50:24;;;;;;;2.20;1.55;;;;;;;-145.79;58.97;76701.16;5304023;28;20078;-81
2023/08/04 15:52:55;;;;;;;1.77;1.25;;;;;;;-145.79;59.59;76726.59;5303290;28;20039;-82
2023/08/04 15:55:26;;;;;;;3.03;1.48;;;;;;;-145.79;58.48;76752.03;5304898;28;20054;-82
2023/08/04 15:57:58;;;;;;;2.05;1.52;;;;;;;-145.79;59.19;76728.72;5301642;28;20032;-82
2023/08/04 16:00:29;;;;;;;2.35;1.40;;;;;;;-145.79;58.90;76732.97;5298886;28;20455;-82
2023/08/04 16:03:01;;;;;;;1.92;1.02;;;;;;;-145.79;59.39;76758.38;5303867;28;20028;-82
2023/08/04 16:05:32;;;;;;;2.47;1.38;;;;;;;-145.79;60.56;76752.03;5302612;28;20069;-82
2023/08/04 16:08:12;;;;;;;2.10;1.50;;;;;;;-145.79;61.21;76747.78;5304696;28;20031;-81
2023/08/04 16:10:44;;;;;;;2.67;1.40;;;;;;;-145.79;61.62;76728.72;5303795;28;20390;-83
2023/08/04 16:13:16;;;;;;;4.93;1.80;;;;;;;-145.79;62.00;76728.72;5303869;28;20055;-82
2023/08/04 16:15:57;;;;;;;1.77;1.17;;;;;;;-145.79;60.71;76732.97;5304180;28;20027;-82
2023/08/04 16:18:33;;;;;;;2.17;1.42;;;;;;;-145.79;60.45;76720.25;5303000;28;20047;-82
2023/08/04 16:21:05;;;;;;;2.83;1.30;;;;;;;-145.79;61.04;76711.75;5304207;28;20039;-82
2023/08/04 16:23:37;;;;;;;2.85;1.52;;;;;;;-145.79;60.58;76713.88;5304619;28;20027;-82
2023/08/04 16:26:08;;;;;;;1.70;1.38;;;;;;;-145.79;59.01;76720.25;5304369;28;20035;-82
2023/08/04 16:28:40;;;;;;;2.25;1.48;;;;;;;-145.79;59.63;76703.28;5303268;28;20098;-80
2023/08/04 16:31:11;;;;;;;2.22;1.40;;;;;;;-145.79;57.71;76705.41;5302553;28;20032;-82
2023/08/04 16:33:43;;;;;;;2.30;1.50;;;;;;;-145.79;57.71;76716.00;5303833;28;20381;-82
2023/08/04 16:36:14;;;;;;;2.53;1.30;;;;;;;-145.79;56.93;76739.31;5302884;28;20110;-82
2023/08/04 16:38:45;;;;;;;1.65;1.40;;;;;;;-145.79;57.73;76716.00;5295592;28;20051;-82
2023/08/04 16:41:17;;;;;;;3.08;1.77;;;;;;;-145.79;56.93;76732.97;5296865;28;20024;-83
2023/08/04 16:43:48;;;;;;;1.48;1.17;;;;;;;-145.79;56.34;76720.25;5297855;28;20025;-82
2023/08/04 16:46:19;;;;;;;28.83;25.73;;;;;;;-145.79;55.93;76703.28;5300648;28;20020;-82
2023/08/04 16:48:51;;;;;;;2.80;1.45;;;;;;;-145.79;54.65;76732.97;5288600;28;20103;-78
2023/08/04 16:51:22;;;;;;;1.50;1.27;;;;;;;-145.79;55.02;76741.44;5299964;28;20483;-83
2023/08/04 16:53:55;;;;;;;2.90;1.30;;;;;;;-145.79;55.57;76722.34;5303214;28;20111;-84
